sensor_id;sensor_type;location;lat;lon;timestamp;P1;durP1;ratioP1;P2;durP2;ratioP2
27383;SDS011;14851;51.166;4.760;2024-03-23T00:53:13;15.52;;;3.95;;
27383;SDS011;14851;51.166;4.760;2024-03-23T00:55:43;12.60;;;4.28;;
27383;SDS011;14851;51.166;4.760;2024-03-23T00:58:09;16.00;;;5.20;;
27383;SDS011;14851;51.166;4.760;2024-03-23T01:00:36;18.08;;;4.85;;
27383;SDS011;14851;51.166;4.760;2024-03-23T01:03:02;15.05;;;4.57;;
27383;SDS011;14851;51.166;4.760;2024-03-23T01:05:29;12.95;;;4.10;;
27383;SDS011;14851;51.166;4.760;2024-03-23T01:07:55;12.25;;;4.15;;
27383;SDS011;14851;51.166;4.760;2024-03-23T01:10:25;12.88;;;4.10;;
27383;SDS011;14851;51.166;4.760;2024-03-23T01:12:51;16.33;;;4.20;;
27383;SDS011;14851;51.166;4.760;2024-03-23T01:15:18;13.98;;;4.40;;
27383;SDS011;14851;51.166;4.760;2024-03-23T01:17:57;12.98;;;3.78;;
27383;SDS011;14851;51.166;4.760;2024-03-23T01:20:31;10.48;;;3.30;;
27383;SDS011;14851;51.166;4.760;2024-03-23T01:22:58;18.65;;;4.32;;
27383;SDS011;14851;51.166;4.760;2024-03-23T01:25:24;15.63;;;3.80;;
27383;SDS011;14851;51.166;4.760;2024-03-23T01:27:50;13.68;;;3.67;;
27383;SDS011;14851;51.166;4.760;2024-03-23T01:30:16;15.60;;;4.07;;
27383;SDS011;14851;51.166;4.760;2024-03-23T01:32:42;13.70;;;3.83;;
27383;SDS011;14851;51.166;4.760;2024-03-23T01:35:12;14.82;;;3.50;;
27383;SDS011;14851;51.166;4.760;2024-03-23T01:37:40;10.80;;;3.60;;
27383;SDS011;14851;51.166;4.760;2024-03-23T01:40:07;17.67;;;3.65;;
27383;SDS011;14851;51.166;4.760;2024-03-23T01:42:34;13.10;;;3.95;;
27383;SDS011;14851;51.166;4.760;2024-03-23T01:45:00;19.00;;;4.45;;
27383;SDS011;14851;51.166;4.760;2024-03-23T01:47:27;8.25;;;3.15;;
27383;SDS011;14851;51.166;4.760;2024-03-23T01:49:53;11.57;;;3.28;;
27383;SDS011;14851;51.166;4.760;2024-03-23T01:52:20;15.02;;;3.35;;
27383;SDS011;14851;51.166;4.760;2024-03-23T01:54:46;11.75;;;3.40;;
27383;SDS011;14851;51.166;4.760;2024-03-23T01:57:15;13.13;;;4.20;;
27383;SDS011;14851;51.166;4.760;2024-03-23T01:59:42;17.33;;;3.92;;
27383;SDS011;14851;51.166;4.760;2024-03-23T02:02:09;13.00;;;3.53;;
27383;SDS011;14851;51.166;4.760;2024-03-23T02:04:38;11.48;;;3.53;;
27383;SDS011;14851;51.166;4.760;2024-03-23T02:07:06;11.18;;;3.42;;
27383;SDS011;14851;51.166;4.760;2024-03-23T02:09:33;11.40;;;4.03;;
27383;SDS011;14851;51.166;4.760;2024-03-23T02:12:01;84.05;;;37.33;;
27383;SDS011;14851;51.166;4.760;2024-03-23T02:14:27;47.67;;;19.63;;
27383;SDS011;14851;51.166;4.760;2024-03-23T02:16:54;36.55;;;14.85;;
27383;SDS011;14851;51.166;4.760;2024-03-23T02:19:20;23.45;;;7.82;;
27383;SDS011;14851;51.166;4.760;2024-03-23T02:21:47;11.95;;;3.90;;
27383;SDS011;14851;51.166;4.760;2024-03-23T02:24:15;15.05;;;4.93;;
27383;SDS011;14851;51.166;4.760;2024-03-23T02:26:42;29.77;;;11.50;;
27383;SDS011;14851;51.166;4.760;2024-03-23T02:29:08;26.92;;;13.02;;
27383;SDS011;14851;51.166;4.760;2024-03-23T02:31:35;19.45;;;6.32;;
27383;SDS011;14851;51.166;4.760;2024-03-23T02:34:04;16.00;;;7.32;;
27383;SDS011;14851;51.166;4.760;2024-03-23T02:36:31;20.23;;;9.70;;
27383;SDS011;14851;51.166;4.760;2024-03-23T02:38:57;18.88;;;5.82;;
27383;SDS011;14851;51.166;4.760;2024-03-23T02:41:23;16.85;;;6.13;;
27383;SDS011;14851;51.166;4.760;2024-03-23T02:43:49;14.57;;;6.32;;
27383;SDS011;14851;51.166;4.760;2024-03-23T02:46:16;17.67;;;7.07;;
27383;SDS011;14851;51.166;4.760;2024-03-23T02:48:42;16.30;;;7.28;;
27383;SDS011;14851;51.166;4.760;2024-03-23T02:51:08;22.08;;;7.82;;
27383;SDS011;14851;51.166;4.760;2024-03-23T02:53:35;19.85;;;7.03;;
27383;SDS011;14851;51.166;4.760;2024-03-23T02:56:01;17.13;;;7.47;;
27383;SDS011;14851;51.166;4.760;2024-03-23T02:58:31;16.17;;;6.80;;
27383;SDS011;14851;51.166;4.760;2024-03-23T03:00:58;25.25;;;7.70;;
27383;SDS011;14851;51.166;4.760;2024-03-23T03:03:27;18.58;;;7.43;;
27383;SDS011;14851;51.166;4.760;2024-03-23T03:05:59;18.88;;;7.80;;
27383;SDS011;14851;51.166;4.760;2024-03-23T03:08:28;19.23;;;8.40;;
27383;SDS011;14851;51.166;4.760;2024-03-23T03:10:55;18.90;;;8.07;;
27383;SDS011;14851;51.166;4.760;2024-03-23T03:13:21;19.40;;;7.53;;
27383;SDS011;14851;51.166;4.760;2024-03-23T03:15:47;16.00;;;8.40;;
27383;SDS011;14851;51.166;4.760;2024-03-23T03:18:13;24.85;;;11.02;;
27383;SDS011;14851;51.166;4.760;2024-03-23T03:20:41;17.88;;;9.95;;
27383;SDS011;14851;51.166;4.760;2024-03-23T03:23:13;19.63;;;9.07;;
27383;SDS011;14851;51.166;4.760;2024-03-23T03:25:39;21.30;;;8.38;;
27383;SDS011;14851;51.166;4.760;2024-03-23T03:28:06;17.52;;;8.75;;
27383;SDS011;14851;51.166;4.760;2024-03-23T03:30:32;22.38;;;9.15;;
27383;SDS011;14851;51.166;4.760;2024-03-23T03:32:58;26.98;;;9.68;;
27383;SDS011;14851;51.166;4.760;2024-03-23T03:35:25;23.63;;;9.52;;
27383;SDS011;14851;51.166;4.760;2024-03-23T03:37:51;22.35;;;9.98;;
27383;SDS011;14851;51.166;4.760;2024-03-23T03:40:17;23.42;;;10.32;;
27383;SDS011;14851;51.166;4.760;2024-03-23T03:42:43;22.35;;;10.00;;
27383;SDS011;14851;51.166;4.760;2024-03-23T03:45:10;17.35;;;9.68;;
27383;SDS011;14851;51.166;4.760;2024-03-23T03:47:38;21.00;;;9.73;;
27383;SDS011;14851;51.166;4.760;2024-03-23T03:50:05;22.67;;;10.63;;
27383;SDS011;14851;51.166;4.760;2024-03-23T03:52:32;18.73;;;9.98;;
27383;SDS011;14851;51.166;4.760;2024-03-23T03:55:02;21.00;;;10.18;;
27383;SDS011;14851;51.166;4.760;2024-03-23T03:57:28;20.50;;;10.27;;
27383;SDS011;14851;51.166;4.760;2024-03-23T03:59:57;21.25;;;10.82;;
27383;SDS011;14851;51.166;4.760;2024-03-23T04:02:26;23.83;;;11.65;;
27383;SDS011;14851;51.166;4.760;2024-03-23T04:04:53;24.52;;;12.90;;
27383;SDS011;14851;51.166;4.760;2024-03-23T04:07:19;24.00;;;11.93;;
27383;SDS011;14851;51.166;4.760;2024-03-23T04:09:48;22.23;;;12.05;;
27383;SDS011;14851;51.166;4.760;2024-03-23T04:12:15;19.67;;;9.55;;
27383;SDS011;14851;51.166;4.760;2024-03-23T04:14:41;18.33;;;9.63;;
27383;SDS011;14851;51.166;4.760;2024-03-23T04:17:10;20.05;;;8.30;;
27383;SDS011;14851;51.166;4.760;2024-03-23T04:19:37;17.75;;;9.38;;
27383;SDS011;14851;51.166;4.760;2024-03-23T04:22:04;17.50;;;8.07;;
27383;SDS011;14851;51.166;4.760;2024-03-23T04:24:31;25.40;;;8.50;;
27383;SDS011;14851;51.166;4.760;2024-03-23T04:26:57;22.73;;;8.50;;
27383;SDS011;14851;51.166;4.760;2024-03-23T04:29:23;18.85;;;8.13;;
27383;SDS011;14851;51.166;4.760;2024-03-23T04:31:52;17.08;;;7.55;;
27383;SDS011;14851;51.166;4.760;2024-03-23T04:34:22;25.23;;;9.80;;
27383;SDS011;14851;51.166;4.760;2024-03-23T04:36:48;21.08;;;8.20;;
27383;SDS011;14851;51.166;4.760;2024-03-23T04:39:15;16.92;;;6.97;;
27383;SDS011;14851;51.166;4.760;2024-03-23T04:41:41;17.83;;;7.50;;
27383;SDS011;14851;51.166;4.760;2024-03-23T04:44:07;21.67;;;7.35;;
27383;SDS011;14851;51.166;4.760;2024-03-23T04:46:34;25.98;;;8.90;;
27383;SDS011;14851;51.166;4.760;2024-03-23T04:49:00;27.58;;;9.60;;
27383;SDS011;14851;51.166;4.760;2024-03-23T04:51:26;20.02;;;7.57;;
27383;SDS011;14851;51.166;4.760;2024-03-23T04:53:55;15.05;;;7.43;;
27383;SDS011;14851;51.166;4.760;2024-03-23T04:56:22;21.73;;;7.60;;
27383;SDS011;14851;51.166;4.760;2024-03-23T04:58:49;17.52;;;6.80;;
27383;SDS011;14851;51.166;4.760;2024-03-23T05:01:18;23.60;;;11.07;;
27383;SDS011;14851;51.166;4.760;2024-03-23T05:03:44;18.38;;;7.88;;
27383;SDS011;14851;51.166;4.760;2024-03-23T05:06:11;19.70;;;7.72;;
27383;SDS011;14851;51.166;4.760;2024-03-23T05:08:37;18.20;;;7.15;;
27383;SDS011;14851;51.166;4.760;2024-03-23T05:11:03;21.70;;;7.35;;
27383;SDS011;14851;51.166;4.760;2024-03-23T05:13:31;15.32;;;6.63;;
27383;SDS011;14851;51.166;4.760;2024-03-23T05:15:57;18.52;;;6.50;;
27383;SDS011;14851;51.166;4.760;2024-03-23T05:18:24;15.88;;;6.03;;
27383;SDS011;14851;51.166;4.760;2024-03-23T05:21:01;16.90;;;5.75;;
27383;SDS011;14851;51.166;4.760;2024-03-23T05:23:30;15.80;;;6.22;;
27383;SDS011;14851;51.166;4.760;2024-03-23T05:25:57;19.43;;;6.37;;
27383;SDS011;14851;51.166;4.760;2024-03-23T05:28:23;19.17;;;6.10;;
27383;SDS011;14851;51.166;4.760;2024-03-23T05:30:52;17.80;;;5.85;;
27383;SDS011;14851;51.166;4.760;2024-03-23T05:33:20;14.80;;;5.47;;
27383;SDS011;14851;51.166;4.760;2024-03-23T05:35:46;17.98;;;6.78;;
27383;SDS011;14851;51.166;4.760;2024-03-23T05:38:21;16.63;;;6.03;;
27383;SDS011;14851;51.166;4.760;2024-03-23T05:40:54;21.05;;;6.68;;
27383;SDS011;14851;51.166;4.760;2024-03-23T05:43:21;13.48;;;5.43;;
27383;SDS011;14851;51.166;4.760;2024-03-23T05:45:57;19.48;;;5.93;;
27383;SDS011;14851;51.166;4.760;2024-03-23T05:48:27;17.13;;;6.00;;
27383;SDS011;14851;51.166;4.760;2024-03-23T05:50:55;22.15;;;7.43;;
27383;SDS011;14851;51.166;4.760;2024-03-23T05:53:22;23.83;;;7.10;;
27383;SDS011;14851;51.166;4.760;2024-03-23T05:55:49;18.35;;;7.18;;
27383;SDS011;14851;51.166;4.760;2024-03-23T05:58:16;14.13;;;5.70;;
27383;SDS011;14851;51.166;4.760;2024-03-23T06:00:44;19.20;;;6.60;;
27383;SDS011;14851;51.166;4.760;2024-03-23T06:03:12;16.67;;;6.30;;
27383;SDS011;14851;51.166;4.760;2024-03-23T06:05:39;16.48;;;6.47;;
27383;SDS011;14851;51.166;4.760;2024-03-23T06:08:05;14.63;;;6.15;;
27383;SDS011;14851;51.166;4.760;2024-03-23T06:10:35;23.15;;;7.13;;
27383;SDS011;14851;51.166;4.760;2024-03-23T06:13:01;16.25;;;5.97;;
27383;SDS011;14851;51.166;4.760;2024-03-23T06:15:27;19.23;;;6.32;;
27383;SDS011;14851;51.166;4.760;2024-03-23T06:17:56;17.48;;;5.88;;
27383;SDS011;14851;51.166;4.760;2024-03-23T06:20:24;20.27;;;6.53;;
27383;SDS011;14851;51.166;4.760;2024-03-23T06:22:52;17.48;;;5.78;;
27383;SDS011;14851;51.166;4.760;2024-03-23T06:25:18;18.25;;;6.03;;
27383;SDS011;14851;51.166;4.760;2024-03-23T06:27:44;18.33;;;5.97;;
27383;SDS011;14851;51.166;4.760;2024-03-23T06:30:11;17.67;;;6.03;;
27383;SDS011;14851;51.166;4.760;2024-03-23T06:32:38;19.20;;;6.65;;
27383;SDS011;14851;51.166;4.760;2024-03-23T06:35:04;15.88;;;5.43;;
27383;SDS011;14851;51.166;4.760;2024-03-23T06:37:34;18.98;;;5.05;;
27383;SDS011;14851;51.166;4.760;2024-03-23T06:40:04;13.35;;;4.45;;
27383;SDS011;14851;51.166;4.760;2024-03-23T06:42:35;16.02;;;4.68;;
27383;SDS011;14851;51.166;4.760;2024-03-23T06:45:02;19.45;;;4.47;;
27383;SDS011;14851;51.166;4.760;2024-03-23T06:47:31;16.40;;;4.20;;
27383;SDS011;14851;51.166;4.760;2024-03-23T06:50:01;15.93;;;4.07;;
27383;SDS011;14851;51.166;4.760;2024-03-23T06:52:31;14.82;;;4.53;;
27383;SDS011;14851;51.166;4.760;2024-03-23T06:54:58;19.35;;;4.00;;
27383;SDS011;14851;51.166;4.760;2024-03-23T06:57:24;13.70;;;3.40;;
27383;SDS011;14851;51.166;4.760;2024-03-23T06:59:50;15.95;;;3.88;;
27383;SDS011;14851;51.166;4.760;2024-03-23T07:02:17;15.70;;;3.50;;
27383;SDS011;14851;51.166;4.760;2024-03-23T07:04:43;12.98;;;3.22;;
27383;SDS011;14851;51.166;4.760;2024-03-23T07:07:09;17.77;;;3.40;;
27383;SDS011;14851;51.166;4.760;2024-03-23T07:09:35;16.00;;;3.35;;
27383;SDS011;14851;51.166;4.760;2024-03-23T07:12:03;15.85;;;3.47;;
27383;SDS011;14851;51.166;4.760;2024-03-23T07:14:30;14.93;;;3.28;;
27383;SDS011;14851;51.166;4.760;2024-03-23T07:16:56;15.98;;;3.42;;
27383;SDS011;14851;51.166;4.760;2024-03-23T07:19:23;15.43;;;3.70;;
27383;SDS011;14851;51.166;4.760;2024-03-23T07:21:49;19.80;;;4.38;;
27383;SDS011;14851;51.166;4.760;2024-03-23T07:24:16;14.93;;;3.60;;
27383;SDS011;14851;51.166;4.760;2024-03-23T07:26:43;16.77;;;3.47;;
27383;SDS011;14851;51.166;4.760;2024-03-23T07:29:09;20.52;;;4.05;;
27383;SDS011;14851;51.166;4.760;2024-03-23T07:31:38;17.92;;;4.50;;
27383;SDS011;14851;51.166;4.760;2024-03-23T07:34:08;15.60;;;4.22;;
27383;SDS011;14851;51.166;4.760;2024-03-23T07:36:37;15.02;;;3.63;;
27383;SDS011;14851;51.166;4.760;2024-03-23T07:39:04;15.77;;;3.38;;
27383;SDS011;14851;51.166;4.760;2024-03-23T07:41:30;19.38;;;4.03;;
27383;SDS011;14851;51.166;4.760;2024-03-23T07:43:56;10.32;;;3.15;;
27383;SDS011;14851;51.166;4.760;2024-03-23T07:46:22;12.63;;;4.15;;
27383;SDS011;14851;51.166;4.760;2024-03-23T07:48:51;15.93;;;4.03;;
27383;SDS011;14851;51.166;4.760;2024-03-23T07:51:19;12.30;;;3.33;;
27383;SDS011;14851;51.166;4.760;2024-03-23T07:53:49;17.05;;;3.50;;
27383;SDS011;14851;51.166;4.760;2024-03-23T07:56:19;10.95;;;3.33;;
27383;SDS011;14851;51.166;4.760;2024-03-23T07:58:47;13.10;;;3.22;;
27383;SDS011;14851;51.166;4.760;2024-03-23T08:01:18;14.50;;;3.10;;
27383;SDS011;14851;51.166;4.760;2024-03-23T08:03:47;18.10;;;4.03;;
27383;SDS011;14851;51.166;4.760;2024-03-23T08:06:19;14.18;;;3.65;;
27383;SDS011;14851;51.166;4.760;2024-03-23T08:08:48;17.25;;;4.30;;
27383;SDS011;14851;51.166;4.760;2024-03-23T08:11:21;17.20;;;3.47;;
27383;SDS011;14851;51.166;4.760;2024-03-23T08:13:48;13.20;;;4.18;;
27383;SDS011;14851;51.166;4.760;2024-03-23T08:16:24;11.88;;;3.60;;
27383;SDS011;14851;51.166;4.760;2024-03-23T08:18:54;8.77;;;2.92;;
27383;SDS011;14851;51.166;4.760;2024-03-23T08:21:23;9.48;;;2.63;;
27383;SDS011;14851;51.166;4.760;2024-03-23T08:23:51;13.57;;;3.17;;
27383;SDS011;14851;51.166;4.760;2024-03-23T08:26:18;15.05;;;3.55;;
27383;SDS011;14851;51.166;4.760;2024-03-23T08:28:44;14.25;;;3.70;;
27383;SDS011;14851;51.166;4.760;2024-03-23T08:31:13;16.02;;;4.30;;
27383;SDS011;14851;51.166;4.760;2024-03-23T08:33:40;15.90;;;3.33;;
27383;SDS011;14851;51.166;4.760;2024-03-23T08:36:11;18.77;;;5.68;;
27383;SDS011;14851;51.166;4.760;2024-03-23T08:38:39;15.85;;;6.32;;
27383;SDS011;14851;51.166;4.760;2024-03-23T08:41:08;17.70;;;5.20;;
27383;SDS011;14851;51.166;4.760;2024-03-23T08:43:36;13.35;;;4.65;;
27383;SDS011;14851;51.166;4.760;2024-03-23T08:46:05;12.73;;;4.60;;
27383;SDS011;14851;51.166;4.760;2024-03-23T08:48:38;10.35;;;3.70;;
27383;SDS011;14851;51.166;4.760;2024-03-23T08:51:11;14.93;;;4.38;;
27383;SDS011;14851;51.166;4.760;2024-03-23T08:53:38;16.00;;;6.15;;
27383;SDS011;14851;51.166;4.760;2024-03-23T08:56:06;18.95;;;5.55;;
27383;SDS011;14851;51.166;4.760;2024-03-23T08:58:37;13.65;;;5.68;;
27383;SDS011;14851;51.166;4.760;2024-03-23T09:01:06;16.08;;;6.22;;
27383;SDS011;14851;51.166;4.760;2024-03-23T09:03:42;17.27;;;5.47;;
27383;SDS011;14851;51.166;4.760;2024-03-23T09:06:09;12.80;;;4.75;;
27383;SDS011;14851;51.166;4.760;2024-03-23T09:08:37;17.90;;;5.50;;
27383;SDS011;14851;51.166;4.760;2024-03-23T09:11:12;13.00;;;5.60;;
27383;SDS011;14851;51.166;4.760;2024-03-23T09:13:39;14.90;;;4.65;;
27383;SDS011;14851;51.166;4.760;2024-03-23T09:16:06;13.00;;;3.63;;
27383;SDS011;14851;51.166;4.760;2024-03-23T09:18:37;17.50;;;4.72;;
27383;SDS011;14851;51.166;4.760;2024-03-23T09:21:04;15.68;;;3.97;;
27383;SDS011;14851;51.166;4.760;2024-03-23T09:23:37;14.75;;;3.85;;
27383;SDS011;14851;51.166;4.760;2024-03-23T09:26:09;15.98;;;4.53;;
27383;SDS011;14851;51.166;4.760;2024-03-23T09:28:36;20.92;;;4.18;;
27383;SDS011;14851;51.166;4.760;2024-03-23T09:31:06;9.52;;;3.58;;
27383;SDS011;14851;51.166;4.760;2024-03-23T09:33:37;15.27;;;4.18;;
27383;SDS011;14851;51.166;4.760;2024-03-23T09:36:03;12.15;;;3.10;;
27383;SDS011;14851;51.166;4.760;2024-03-23T09:38:33;14.68;;;3.80;;
27383;SDS011;14851;51.166;4.760;2024-03-23T09:41:00;10.43;;;3.22;;
27383;SDS011;14851;51.166;4.760;2024-03-23T09:43:32;9.85;;;3.42;;
27383;SDS011;14851;51.166;4.760;2024-03-23T09:45:59;11.30;;;3.28;;
27383;SDS011;14851;51.166;4.760;2024-03-23T09:48:26;12.57;;;3.30;;
27383;SDS011;14851;51.166;4.760;2024-03-23T09:50:53;9.75;;;3.00;;
27383;SDS011;14851;51.166;4.760;2024-03-23T09:53:19;14.60;;;3.15;;
27383;SDS011;14851;51.166;4.760;2024-03-23T09:55:47;10.35;;;3.75;;
27383;SDS011;14851;51.166;4.760;2024-03-23T09:58:15;12.02;;;3.30;;
27383;SDS011;14851;51.166;4.760;2024-03-23T10:00:45;11.63;;;3.63;;
27383;SDS011;14851;51.166;4.760;2024-03-23T10:03:12;10.57;;;2.08;;
27383;SDS011;14851;51.166;4.760;2024-03-23T10:05:39;4.20;;;1.58;;
27383;SDS011;14851;51.166;4.760;2024-03-23T10:10:44;2.75;;;1.00;;
27383;SDS011;14851;51.166;4.760;2024-03-23T10:13:23;2.55;;;1.05;;
27383;SDS011;14851;51.166;4.760;2024-03-23T10:15:54;3.75;;;1.40;;
27383;SDS011;14851;51.166;4.760;2024-03-23T10:18:25;5.72;;;1.00;;
27383;SDS011;14851;51.166;4.760;2024-03-23T10:23:33;4.72;;;1.48;;
27383;SDS011;14851;51.166;4.760;2024-03-23T10:26:19;4.45;;;0.75;;
27383;SDS011;14851;51.166;4.760;2024-03-23T10:28:58;4.15;;;1.00;;
27383;SDS011;14851;51.166;4.760;2024-03-23T10:31:28;5.65;;;1.38;;
27383;SDS011;14851;51.166;4.760;2024-03-23T10:33:57;9.60;;;1.23;;
27383;SDS011;14851;51.166;4.760;2024-03-23T10:36:24;2.70;;;0.70;;
27383;SDS011;14851;51.166;4.760;2024-03-23T10:38:54;5.68;;;1.50;;
27383;SDS011;14851;51.166;4.760;2024-03-23T10:41:20;5.20;;;1.13;;
27383;SDS011;14851;51.166;4.760;2024-03-23T10:43:54;13.57;;;1.83;;
27383;SDS011;14851;51.166;4.760;2024-03-23T10:46:23;7.20;;;1.92;;
27383;SDS011;14851;51.166;4.760;2024-03-23T10:48:49;5.38;;;1.40;;
27383;SDS011;14851;51.166;4.760;2024-03-23T10:51:15;7.22;;;1.60;;
27383;SDS011;14851;51.166;4.760;2024-03-23T10:53:42;5.22;;;1.20;;
27383;SDS011;14851;51.166;4.760;2024-03-23T10:56:15;3.22;;;0.70;;
27383;SDS011;14851;51.166;4.760;2024-03-23T10:58:44;5.32;;;1.05;;
27383;SDS011;14851;51.166;4.760;2024-03-23T11:01:14;7.95;;;0.90;;
27383;SDS011;14851;51.166;4.760;2024-03-23T11:03:45;3.90;;;0.80;;
27383;SDS011;14851;51.166;4.760;2024-03-23T11:06:33;2.90;;;0.70;;
27383;SDS011;14851;51.166;4.760;2024-03-23T11:09:00;2.15;;;1.15;;
27383;SDS011;14851;51.166;4.760;2024-03-23T11:11:26;5.50;;;1.63;;
27383;SDS011;14851;51.166;4.760;2024-03-23T11:13:54;3.33;;;0.95;;
27383;SDS011;14851;51.166;4.760;2024-03-23T11:16:24;6.25;;;1.48;;
27383;SDS011;14851;51.166;4.760;2024-03-23T11:22:04;6.35;;;1.40;;
27383;SDS011;14851;51.166;4.760;2024-03-23T11:24:31;5.90;;;1.67;;
27383;SDS011;14851;51.166;4.760;2024-03-23T11:26:57;8.05;;;1.83;;
27383;SDS011;14851;51.166;4.760;2024-03-23T11:29:27;4.13;;;1.55;;
27383;SDS011;14851;51.166;4.760;2024-03-23T11:31:55;5.07;;;2.03;;
27383;SDS011;14851;51.166;4.760;2024-03-23T11:34:22;5.00;;;1.65;;
27383;SDS011;14851;51.166;4.760;2024-03-23T11:36:48;6.10;;;1.80;;
27383;SDS011;14851;51.166;4.760;2024-03-23T11:39:19;7.00;;;2.20;;
27383;SDS011;14851;51.166;4.760;2024-03-23T11:41:46;7.05;;;1.83;;
27383;SDS011;14851;51.166;4.760;2024-03-23T11:44:21;6.75;;;2.17;;
27383;SDS011;14851;51.166;4.760;2024-03-23T11:46:51;7.07;;;1.90;;
27383;SDS011;14851;51.166;4.760;2024-03-23T11:49:25;11.75;;;3.20;;
27383;SDS011;14851;51.166;4.760;2024-03-23T11:51:56;5.75;;;1.85;;
27383;SDS011;14851;51.166;4.760;2024-03-23T11:54:23;8.82;;;2.15;;
27383;SDS011;14851;51.166;4.760;2024-03-23T11:57:02;6.85;;;1.83;;
27383;SDS011;14851;51.166;4.760;2024-03-23T11:59:32;8.13;;;2.13;;
27383;SDS011;14851;51.166;4.760;2024-03-23T12:02:12;6.85;;;1.90;;
27383;SDS011;14851;51.166;4.760;2024-03-23T12:04:40;6.85;;;1.70;;
27383;SDS011;14851;51.166;4.760;2024-03-23T12:07:11;6.53;;;1.80;;
27383;SDS011;14851;51.166;4.760;2024-03-23T12:09:44;9.00;;;1.80;;
27383;SDS011;14851;51.166;4.760;2024-03-23T12:12:18;10.10;;;1.92;;
27383;SDS011;14851;51.166;4.760;2024-03-23T12:14:45;9.68;;;2.42;;
27383;SDS011;14851;51.166;4.760;2024-03-23T12:17:27;13.77;;;3.13;;
27383;SDS011;14851;51.166;4.760;2024-03-23T12:19:54;5.38;;;1.58;;
27383;SDS011;14851;51.166;4.760;2024-03-23T12:22:20;5.80;;;1.40;;
27383;SDS011;14851;51.166;4.760;2024-03-23T12:24:48;3.53;;;1.17;;
27383;SDS011;14851;51.166;4.760;2024-03-23T12:27:14;5.53;;;1.00;;
27383;SDS011;14851;51.166;4.760;2024-03-23T12:29:41;8.13;;;1.40;;
27383;SDS011;14851;51.166;4.760;2024-03-23T12:32:13;5.47;;;1.35;;
27383;SDS011;14851;51.166;4.760;2024-03-23T12:34:40;4.78;;;1.08;;
27383;SDS011;14851;51.166;4.760;2024-03-23T12:37:09;6.63;;;1.58;;
27383;SDS011;14851;51.166;4.760;2024-03-23T12:39:35;3.80;;;1.35;;
27383;SDS011;14851;51.166;4.760;2024-03-23T12:42:02;6.35;;;1.90;;
27383;SDS011;14851;51.166;4.760;2024-03-23T12:44:28;4.57;;;1.25;;
27383;SDS011;14851;51.166;4.760;2024-03-23T12:46:55;8.48;;;1.95;;
27383;SDS011;14851;51.166;4.760;2024-03-23T12:49:21;6.68;;;1.95;;
27383;SDS011;14851;51.166;4.760;2024-03-23T12:51:56;8.13;;;2.00;;
27383;SDS011;14851;51.166;4.760;2024-03-23T12:54:22;8.40;;;2.22;;
27383;SDS011;14851;51.166;4.760;2024-03-23T12:56:48;9.45;;;2.70;;
27383;SDS011;14851;51.166;4.760;2024-03-23T12:59:14;7.28;;;2.10;;
27383;SDS011;14851;51.166;4.760;2024-03-23T13:01:42;7.47;;;1.85;;
27383;SDS011;14851;51.166;4.760;2024-03-23T13:04:11;6.05;;;2.10;;
27383;SDS011;14851;51.166;4.760;2024-03-23T13:06:37;8.70;;;2.20;;
27383;SDS011;14851;51.166;4.760;2024-03-23T13:09:03;7.03;;;2.10;;
27383;SDS011;14851;51.166;4.760;2024-03-23T13:11:30;6.93;;;2.15;;
27383;SDS011;14851;51.166;4.760;2024-03-23T13:13:57;6.32;;;2.88;;
27383;SDS011;14851;51.166;4.760;2024-03-23T13:16:23;4.88;;;1.83;;
27383;SDS011;14851;51.166;4.760;2024-03-23T13:18:49;6.53;;;2.30;;
27383;SDS011;14851;51.166;4.760;2024-03-23T13:21:17;11.85;;;2.38;;
27383;SDS011;14851;51.166;4.760;2024-03-23T13:23:46;10.45;;;2.55;;
27383;SDS011;14851;51.166;4.760;2024-03-23T13:26:16;6.70;;;2.05;;
27383;SDS011;14851;51.166;4.760;2024-03-23T13:28:42;10.60;;;2.38;;
27383;SDS011;14851;51.166;4.760;2024-03-23T13:31:10;10.95;;;2.33;;
27383;SDS011;14851;51.166;4.760;2024-03-23T13:33:36;8.25;;;2.10;;
27383;SDS011;14851;51.166;4.760;2024-03-23T13:36:02;6.55;;;2.03;;
27383;SDS011;14851;51.166;4.760;2024-03-23T13:38:29;7.07;;;1.92;;
27383;SDS011;14851;51.166;4.760;2024-03-23T13:43:25;3.38;;;1.42;;
27383;SDS011;14851;51.166;4.760;2024-03-23T13:45:56;6.88;;;1.90;;
27383;SDS011;14851;51.166;4.760;2024-03-23T13:48:24;4.35;;;1.50;;
27383;SDS011;14851;51.166;4.760;2024-03-23T13:53:28;6.10;;;1.10;;
27383;SDS011;14851;51.166;4.760;2024-03-23T13:55:55;5.13;;;0.90;;
27383;SDS011;14851;51.166;4.760;2024-03-23T13:58:21;4.93;;;1.13;;
27383;SDS011;14851;51.166;4.760;2024-03-23T14:00:51;4.35;;;1.00;;
27383;SDS011;14851;51.166;4.760;2024-03-23T14:03:18;2.90;;;1.35;;
27383;SDS011;14851;51.166;4.760;2024-03-23T14:05:45;5.45;;;1.98;;
27383;SDS011;14851;51.166;4.760;2024-03-23T14:08:12;7.80;;;2.00;;
27383;SDS011;14851;51.166;4.760;2024-03-23T14:10:42;3.30;;;1.50;;
27383;SDS011;14851;51.166;4.760;2024-03-23T14:13:09;4.38;;;1.95;;
27383;SDS011;14851;51.166;4.760;2024-03-23T14:15:35;5.63;;;1.23;;
27383;SDS011;14851;51.166;4.760;2024-03-23T14:18:04;4.03;;;1.60;;
27383;SDS011;14851;51.166;4.760;2024-03-23T14:20:30;2.75;;;1.15;;
27383;SDS011;14851;51.166;4.760;2024-03-23T14:22:57;2.70;;;0.80;;
27383;SDS011;14851;51.166;4.760;2024-03-23T14:25:26;2.80;;;0.90;;
27383;SDS011;14851;51.166;4.760;2024-03-23T14:27:57;2.97;;;1.02;;
27383;SDS011;14851;51.166;4.760;2024-03-23T14:30:26;2.78;;;0.68;;
27383;SDS011;14851;51.166;4.760;2024-03-23T14:32:54;3.60;;;0.93;;
27383;SDS011;14851;51.166;4.760;2024-03-23T14:35:21;3.42;;;0.60;;
27383;SDS011;14851;51.166;4.760;2024-03-23T14:37:47;3.08;;;1.02;;
27383;SDS011;14851;51.166;4.760;2024-03-23T14:40:13;2.58;;;0.70;;
27383;SDS011;14851;51.166;4.760;2024-03-23T14:42:39;2.78;;;0.85;;
27383;SDS011;14851;51.166;4.760;2024-03-23T14:45:06;5.22;;;1.00;;
27383;SDS011;14851;51.166;4.760;2024-03-23T14:47:36;3.22;;;1.27;;
27383;SDS011;14851;51.166;4.760;2024-03-23T14:50:03;4.88;;;1.20;;
27383;SDS011;14851;51.166;4.760;2024-03-23T14:52:29;4.75;;;1.35;;
27383;SDS011;14851;51.166;4.760;2024-03-23T14:54:57;5.65;;;1.00;;
27383;SDS011;14851;51.166;4.760;2024-03-23T14:57:24;4.25;;;1.35;;
27383;SDS011;14851;51.166;4.760;2024-03-23T14:59:50;4.13;;;1.10;;
27383;SDS011;14851;51.166;4.760;2024-03-23T15:02:21;4.50;;;0.77;;
27383;SDS011;14851;51.166;4.760;2024-03-23T15:04:49;4.60;;;1.23;;
27383;SDS011;14851;51.166;4.760;2024-03-23T15:07:16;3.88;;;1.13;;
27383;SDS011;14851;51.166;4.760;2024-03-23T15:09:41;8.00;;;1.25;;
27383;SDS011;14851;51.166;4.760;2024-03-23T15:12:11;6.28;;;1.30;;
27383;SDS011;14851;51.166;4.760;2024-03-23T15:14:37;4.30;;;1.17;;
27383;SDS011;14851;51.166;4.760;2024-03-23T15:17:03;5.10;;;1.27;;
27383;SDS011;14851;51.166;4.760;2024-03-23T15:19:32;4.95;;;1.13;;
27383;SDS011;14851;51.166;4.760;2024-03-23T15:21:58;7.90;;;1.38;;
27383;SDS011;14851;51.166;4.760;2024-03-23T15:24:25;4.63;;;1.10;;
27383;SDS011;14851;51.166;4.760;2024-03-23T15:26:51;4.35;;;1.45;;
27383;SDS011;14851;51.166;4.760;2024-03-23T15:29:17;7.88;;;1.55;;
27383;SDS011;14851;51.166;4.760;2024-03-23T15:31:44;5.97;;;1.60;;
27383;SDS011;14851;51.166;4.760;2024-03-23T15:34:11;6.97;;;1.45;;
27383;SDS011;14851;51.166;4.760;2024-03-23T15:36:37;5.95;;;1.40;;
27383;SDS011;14851;51.166;4.760;2024-03-23T15:39:06;4.53;;;1.08;;
27383;SDS011;14851;51.166;4.760;2024-03-23T15:41:32;4.47;;;1.50;;
27383;SDS011;14851;51.166;4.760;2024-03-23T15:44:01;4.07;;;1.38;;
27383;SDS011;14851;51.166;4.760;2024-03-23T15:46:27;6.03;;;1.75;;
27383;SDS011;14851;51.166;4.760;2024-03-23T15:48:53;7.15;;;1.70;;